Lady Lauren — WDE7767 — position and weather

sailwx.info

Track history (hours):
 
Tides and Currents Weather Stations Pressure Air Temp Water Temp Dewpoint Dewpoint Depression Visibility Wind Speed Wind Dir Waves Ship Positions

Lady Lauren

More information available from US FCC via Universal Licensing System and Coast Guard Vessel Documentation Center.

Last reported at 2014-Sep-08 05:19 UTC. Time now 2014-Sep-15 04:07 UTC.
Position N 30°06' W 090°55'.

Length 22 m; draft 2.1 m.

Type: Towing. MMSI: 367397380.

Date/timePositionNaut miles runAvg speedWind from/ knotsBaromVisibWave heightAir tempDewpointWater temp
2014-Sep-08 05:19N 30°06' W 090°55'3 2.5
2014-Sep-08 04:05N 30°04' W 090°53'2 2.9
2014-Sep-08 03:32N 30°03' W 090°51'4 3.3
2014-Sep-08 02:20N 29°59' W 090°50'3 2.7
2014-Sep-08 01:25N 30°00' W 090°47'3 3.2
2014-Sep-08 00:33N 30°01' W 090°44'3 3.4
2014-Sep-07 23:33N 30°03' W 090°41'3 2.9
2014-Sep-07 22:34N 30°02' W 090°37'2 2.2
2014-Sep-07 21:33N 30°03' W 090°35'4 3.6
2014-Sep-07 20:33N 30°03' W 090°31'1 1.5
2014-Sep-07 19:33N 30°03' W 090°29'0 0.1
2014-Sep-07 18:28N 30°03' W 090°29'0 0.0
2014-Sep-07 17:32N 30°03' W 090°29'0 0.0
2014-Sep-07 16:32N 30°03' W 090°29'0 0.0
2014-Sep-07 15:33N 30°03' W 090°29'0 0.0
2014-Sep-07 14:33N 30°03' W 090°29'0 0.0
2014-Sep-07 13:04N 30°03' W 090°29'0 0.0
2014-Sep-07 12:33N 30°03' W 090°29'0 0.1
2014-Sep-07 11:33N 30°03' W 090°29'0 0.0
2014-Sep-07 10:33N 30°03' W 090°29'2 1.9
2014-Sep-07 09:33N 30°02' W 090°28'6 4.9
2014-Sep-07 08:21N 29°57' W 090°24'  
2014-Sep-04 06:33N 29°32' W 090°46'4 3.4
2014-Sep-04 05:31N 29°32' W 090°50'4 3.8
2014-Sep-04 04:33N 29°33' W 090°54'4 3.7
2014-Sep-04 03:34N 29°35' W 090°58'3 3.3
2014-Sep-04 02:33N 29°37' W 091°00'3 2.9
2014-Sep-04 01:33N 29°37' W 091°03'3 3.3
2014-Sep-04 00:33N 29°38' W 091°07'3 3.3
2014-Sep-03 23:34N 29°41' W 091°09'2 1.9
2014-Sep-03 22:33N 29°41' W 091°11'3 2.8
2014-Sep-03 21:33N 29°40' W 091°14'3 2.8
2014-Sep-03 20:34N 29°39' W 091°17'3 2.9
2014-Sep-03 19:33N 29°38' W 091°21'25 2.9
2014-Sep-03 11:09N 29°47' W 091°48'22 1.1
2014-Sep-02 14:29N 29°39' W 091°24'5 4.9
2014-Sep-02 13:33N 29°38' W 091°19'5 4.8
2014-Sep-02 12:33N 29°40' W 091°14'3 3.1
2014-Sep-02 11:33N 29°41' W 091°10'3 3.1
2014-Sep-02 10:33N 29°39' W 091°07'4 3.9
2014-Sep-02 09:33N 29°37' W 091°03'4 3.7
2014-Sep-02 08:33N 29°37' W 090°59'9 4.3
2014-Sep-02 06:32N 29°32' W 090°51'  
2014-Aug-30 10:31N 29°34' W 090°57'4 4.1
2014-Aug-30 09:33N 29°37' W 090°60'4 4.1
2014-Aug-30 08:33N 29°38' W 091°05'3 3.4
2014-Aug-30 07:33N 29°40' W 091°08'3 2.9
2014-Aug-30 06:33N 29°41' W 091°11'2 2.2
2014-Aug-30 05:33N 29°41' W 091°13'4 3.7
2014-Aug-30 04:33N 29°39' W 091°17'4 3.6
2014-Aug-30 03:33N 29°38' W 091°21'12 0.8
2014-Aug-29 12:27N 29°43' W 091°33'5 5.9
2014-Aug-29 11:33N 29°41' W 091°28'5 5.4
2014-Aug-29 10:33N 29°39' W 091°22'5 5.1
2014-Aug-29 09:34N 29°39' W 091°16'4 4.0
2014-Aug-29 08:33N 29°41' W 091°12'2 1.8
2014-Aug-29 07:34N 29°41' W 091°10'2 2.2
2014-Aug-29 06:33N 29°40' W 091°08'4 4.3
2014-Aug-29 05:33N 29°37' W 091°04'  
Track history (hours):
 
Tides and Currents Weather Stations Pressure Air Temp Water Temp Dewpoint Dewpoint Depression Visibility Wind Speed Wind Dir Waves Ship Positions

Lady Lauren

More information available from US FCC via Universal Licensing System and Coast Guard Vessel Documentation Center.

Last reported at 2014-Sep-08 05:19 UTC. Time now 2014-Sep-15 04:07 UTC.
Position N 30°06' W 090°55'.

Length 22 m; draft 2.1 m.

Type: Towing. MMSI: 367397380.

Date/timePositionNaut miles runAvg speedWind from/ knotsBaromVisibWave heightAir tempDewpointWater temp
2014-Sep-08 05:19N 30°06' W 090°55'3 2.5
2014-Sep-08 04:05N 30°04' W 090°53'2 2.9
2014-Sep-08 03:32N 30°03' W 090°51'4 3.3
2014-Sep-08 02:20N 29°59' W 090°50'3 2.7
2014-Sep-08 01:25N 30°00' W 090°47'3 3.2
2014-Sep-08 00:33N 30°01' W 090°44'3 3.4
2014-Sep-07 23:33N 30°03' W 090°41'3 2.9
2014-Sep-07 22:34N 30°02' W 090°37'2 2.2
2014-Sep-07 21:33N 30°03' W 090°35'4 3.6
2014-Sep-07 20:33N 30°03' W 090°31'1 1.5
2014-Sep-07 19:33N 30°03' W 090°29'0 0.1
2014-Sep-07 18:28N 30°03' W 090°29'0 0.0
2014-Sep-07 17:32N 30°03' W 090°29'0 0.0
2014-Sep-07 16:32N 30°03' W 090°29'0 0.0
2014-Sep-07 15:33N 30°03' W 090°29'0 0.0
2014-Sep-07 14:33N 30°03' W 090°29'0 0.0
2014-Sep-07 13:04N 30°03' W 090°29'0 0.0
2014-Sep-07 12:33N 30°03' W 090°29'0 0.1
2014-Sep-07 11:33N 30°03' W 090°29'0 0.0
2014-Sep-07 10:33N 30°03' W 090°29'2 1.9
2014-Sep-07 09:33N 30°02' W 090°28'6 4.9
2014-Sep-07 08:21N 29°57' W 090°24'  
2014-Sep-04 06:33N 29°32' W 090°46'4 3.4
2014-Sep-04 05:31N 29°32' W 090°50'4 3.8
2014-Sep-04 04:33N 29°33' W 090°54'4 3.7
2014-Sep-04 03:34N 29°35' W 090°58'3 3.3
2014-Sep-04 02:33N 29°37' W 091°00'3 2.9
2014-Sep-04 01:33N 29°37' W 091°03'3 3.3
2014-Sep-04 00:33N 29°38' W 091°07'3 3.3
2014-Sep-03 23:34N 29°41' W 091°09'2 1.9
2014-Sep-03 22:33N 29°41' W 091°11'3 2.8
2014-Sep-03 21:33N 29°40' W 091°14'3 2.8
2014-Sep-03 20:34N 29°39' W 091°17'3 2.9
2014-Sep-03 19:33N 29°38' W 091°21'25 2.9
2014-Sep-03 11:09N 29°47' W 091°48'22 1.1
2014-Sep-02 14:29N 29°39' W 091°24'5 4.9
2014-Sep-02 13:33N 29°38' W 091°19'5 4.8
2014-Sep-02 12:33N 29°40' W 091°14'3 3.1
2014-Sep-02 11:33N 29°41' W 091°10'3 3.1
2014-Sep-02 10:33N 29°39' W 091°07'4 3.9
2014-Sep-02 09:33N 29°37' W 091°03'4 3.7
2014-Sep-02 08:33N 29°37' W 090°59'9 4.3
2014-Sep-02 06:32N 29°32' W 090°51'  
2014-Aug-30 10:31N 29°34' W 090°57'4 4.1
2014-Aug-30 09:33N 29°37' W 090°60'4 4.1
2014-Aug-30 08:33N 29°38' W 091°05'3 3.4
2014-Aug-30 07:33N 29°40' W 091°08'3 2.9
2014-Aug-30 06:33N 29°41' W 091°11'2 2.2
2014-Aug-30 05:33N 29°41' W 091°13'4 3.7
2014-Aug-30 04:33N 29°39' W 091°17'4 3.6
2014-Aug-30 03:33N 29°38' W 091°21'12 0.8
2014-Aug-29 12:27N 29°43' W 091°33'5 5.9
2014-Aug-29 11:33N 29°41' W 091°28'5 5.4
2014-Aug-29 10:33N 29°39' W 091°22'5 5.1
2014-Aug-29 09:34N 29°39' W 091°16'4 4.0
2014-Aug-29 08:33N 29°41' W 091°12'2 1.8
2014-Aug-29 07:34N 29°41' W 091°10'2 2.2
2014-Aug-29 06:33N 29°40' W 091°08'4 4.3
2014-Aug-29 05:33N 29°37' W 091°04'  

Dump ship's entire track history